sensor_id;sensor_type;location;lat;lon;timestamp;P1;durP1;ratioP1;P2;durP2;ratioP2
12852;SDS011;6495;51.808;7.478;2023-04-29T00:00:04;19.58;;;9.63;;
12852;SDS011;6495;51.808;7.478;2023-04-29T00:02:39;16.05;;;8.95;;
12852;SDS011;6495;51.808;7.478;2023-04-29T00:05:08;20.80;;;10.05;;
12852;SDS011;6495;51.808;7.478;2023-04-29T00:07:37;19.50;;;10.02;;
12852;SDS011;6495;51.808;7.478;2023-04-29T00:10:05;18.42;;;9.63;;
12852;SDS011;6495;51.808;7.478;2023-04-29T00:12:34;19.13;;;9.43;;
12852;SDS011;6495;51.808;7.478;2023-04-29T00:15:03;20.20;;;10.18;;
12852;SDS011;6495;51.808;7.478;2023-04-29T00:17:32;19.25;;;9.70;;
12852;SDS011;6495;51.808;7.478;2023-04-29T00:20:02;21.75;;;11.07;;
12852;SDS011;6495;51.808;7.478;2023-04-29T00:22:31;22.38;;;12.00;;
12852;SDS011;6495;51.808;7.478;2023-04-29T00:24:59;24.90;;;13.23;;
12852;SDS011;6495;51.808;7.478;2023-04-29T00:27:29;26.00;;;12.40;;
12852;SDS011;6495;51.808;7.478;2023-04-29T00:29:58;25.35;;;12.88;;
12852;SDS011;6495;51.808;7.478;2023-04-29T00:32:26;29.52;;;14.65;;
12852;SDS011;6495;51.808;7.478;2023-04-29T00:34:54;32.45;;;14.73;;
12852;SDS011;6495;51.808;7.478;2023-04-29T00:37:24;27.80;;;14.18;;
12852;SDS011;6495;51.808;7.478;2023-04-29T00:39:52;33.67;;;14.35;;
12852;SDS011;6495;51.808;7.478;2023-04-29T00:42:20;30.90;;;14.80;;
12852;SDS011;6495;51.808;7.478;2023-04-29T00:44:48;31.83;;;14.13;;
12852;SDS011;6495;51.808;7.478;2023-04-29T00:47:16;38.03;;;17.38;;
12852;SDS011;6495;51.808;7.478;2023-04-29T00:49:44;35.20;;;15.80;;
12852;SDS011;6495;51.808;7.478;2023-04-29T00:52:13;33.08;;;14.88;;
12852;SDS011;6495;51.808;7.478;2023-04-29T00:54:44;39.45;;;16.90;;
12852;SDS011;6495;51.808;7.478;2023-04-29T00:57:13;39.47;;;16.55;;
12852;SDS011;6495;51.808;7.478;2023-04-29T00:59:41;32.67;;;16.42;;
12852;SDS011;6495;51.808;7.478;2023-04-29T01:02:10;35.92;;;16.17;;
12852;SDS011;6495;51.808;7.478;2023-04-29T01:04:40;34.85;;;15.73;;
12852;SDS011;6495;51.808;7.478;2023-04-29T01:07:08;31.00;;;14.85;;
12852;SDS011;6495;51.808;7.478;2023-04-29T01:09:52;33.13;;;15.07;;
12852;SDS011;6495;51.808;7.478;2023-04-29T01:12:32;28.38;;;14.18;;
12852;SDS011;6495;51.808;7.478;2023-04-29T01:15:09;32.33;;;15.30;;
12852;SDS011;6495;51.808;7.478;2023-04-29T01:17:51;34.88;;;14.77;;
12852;SDS011;6495;51.808;7.478;2023-04-29T01:20:27;30.23;;;14.57;;
12852;SDS011;6495;51.808;7.478;2023-04-29T01:22:57;27.23;;;13.15;;
12852;SDS011;6495;51.808;7.478;2023-04-29T01:25:28;30.23;;;13.93;;
12852;SDS011;6495;51.808;7.478;2023-04-29T01:28:11;34.08;;;14.15;;
12852;SDS011;6495;51.808;7.478;2023-04-29T01:30:55;28.92;;;14.20;;
12852;SDS011;6495;51.808;7.478;2023-04-29T01:33:31;32.47;;;13.88;;
12852;SDS011;6495;51.808;7.478;2023-04-29T01:36:12;31.33;;;14.73;;
12852;SDS011;6495;51.808;7.478;2023-04-29T01:38:55;35.92;;;14.73;;
12852;SDS011;6495;51.808;7.478;2023-04-29T01:41:42;27.58;;;12.25;;
12852;SDS011;6495;51.808;7.478;2023-04-29T01:44:23;29.73;;;13.40;;
12852;SDS011;6495;51.808;7.478;2023-04-29T01:46:57;27.75;;;13.30;;
12852;SDS011;6495;51.808;7.478;2023-04-29T01:49:34;26.75;;;12.90;;
12852;SDS011;6495;51.808;7.478;2023-04-29T01:52:03;24.95;;;11.85;;
12852;SDS011;6495;51.808;7.478;2023-04-29T01:54:32;29.75;;;12.93;;
12852;SDS011;6495;51.808;7.478;2023-04-29T01:57:03;26.60;;;12.02;;
12852;SDS011;6495;51.808;7.478;2023-04-29T01:59:45;26.27;;;12.07;;
12852;SDS011;6495;51.808;7.478;2023-04-29T02:02:36;32.65;;;13.35;;
12852;SDS011;6495;51.808;7.478;2023-04-29T02:05:31;22.35;;;10.73;;
12852;SDS011;6495;51.808;7.478;2023-04-29T02:08:00;24.02;;;11.48;;
12852;SDS011;6495;51.808;7.478;2023-04-29T02:10:31;25.00;;;11.10;;
12852;SDS011;6495;51.808;7.478;2023-04-29T02:13:11;22.25;;;10.57;;
12852;SDS011;6495;51.808;7.478;2023-04-29T02:15:41;22.05;;;11.52;;
12852;SDS011;6495;51.808;7.478;2023-04-29T02:18:10;19.70;;;9.98;;
12852;SDS011;6495;51.808;7.478;2023-04-29T02:20:39;23.20;;;9.93;;
12852;SDS011;6495;51.808;7.478;2023-04-29T02:23:07;19.85;;;10.27;;
12852;SDS011;6495;51.808;7.478;2023-04-29T02:25:35;21.35;;;10.85;;
12852;SDS011;6495;51.808;7.478;2023-04-29T02:28:04;19.20;;;10.32;;
12852;SDS011;6495;51.808;7.478;2023-04-29T02:30:33;18.35;;;9.63;;
12852;SDS011;6495;51.808;7.478;2023-04-29T02:33:02;20.17;;;9.63;;
12852;SDS011;6495;51.808;7.478;2023-04-29T02:35:34;20.70;;;10.55;;
12852;SDS011;6495;51.808;7.478;2023-04-29T02:38:02;19.90;;;10.77;;
12852;SDS011;6495;51.808;7.478;2023-04-29T02:40:30;20.52;;;10.13;;
12852;SDS011;6495;51.808;7.478;2023-04-29T02:42:58;20.13;;;10.90;;
12852;SDS011;6495;51.808;7.478;2023-04-29T02:45:27;20.48;;;9.98;;
12852;SDS011;6495;51.808;7.478;2023-04-29T02:47:57;19.40;;;8.82;;
12852;SDS011;6495;51.808;7.478;2023-04-29T02:50:25;16.70;;;9.13;;
12852;SDS011;6495;51.808;7.478;2023-04-29T02:52:53;22.35;;;11.15;;
12852;SDS011;6495;51.808;7.478;2023-04-29T02:55:22;19.10;;;9.63;;
12852;SDS011;6495;51.808;7.478;2023-04-29T02:57:54;15.70;;;9.25;;
12852;SDS011;6495;51.808;7.478;2023-04-29T03:00:22;18.35;;;9.98;;
12852;SDS011;6495;51.808;7.478;2023-04-29T03:02:51;18.33;;;9.85;;
12852;SDS011;6495;51.808;7.478;2023-04-29T03:05:20;19.65;;;9.98;;
12852;SDS011;6495;51.808;7.478;2023-04-29T03:07:49;19.73;;;9.68;;
12852;SDS011;6495;51.808;7.478;2023-04-29T03:10:18;19.13;;;10.15;;
12852;SDS011;6495;51.808;7.478;2023-04-29T03:12:46;19.20;;;10.30;;
12852;SDS011;6495;51.808;7.478;2023-04-29T03:15:14;20.65;;;11.15;;
12852;SDS011;6495;51.808;7.478;2023-04-29T03:17:44;21.83;;;11.60;;
12852;SDS011;6495;51.808;7.478;2023-04-29T03:20:12;26.90;;;11.60;;
12852;SDS011;6495;51.808;7.478;2023-04-29T03:22:42;22.92;;;12.10;;
12852;SDS011;6495;51.808;7.478;2023-04-29T03:25:10;24.65;;;12.05;;
12852;SDS011;6495;51.808;7.478;2023-04-29T03:27:38;21.73;;;11.52;;
12852;SDS011;6495;51.808;7.478;2023-04-29T03:30:08;24.25;;;12.02;;
12852;SDS011;6495;51.808;7.478;2023-04-29T03:32:43;22.38;;;12.13;;
12852;SDS011;6495;51.808;7.478;2023-04-29T03:35:11;24.23;;;12.25;;
12852;SDS011;6495;51.808;7.478;2023-04-29T03:38:08;25.55;;;12.82;;
12852;SDS011;6495;51.808;7.478;2023-04-29T03:40:37;20.92;;;12.32;;
12852;SDS011;6495;51.808;7.478;2023-04-29T03:43:06;21.35;;;12.20;;
12852;SDS011;6495;51.808;7.478;2023-04-29T03:45:34;23.33;;;12.60;;
12852;SDS011;6495;51.808;7.478;2023-04-29T03:48:04;26.45;;;13.15;;
12852;SDS011;6495;51.808;7.478;2023-04-29T03:50:33;26.45;;;12.73;;
12852;SDS011;6495;51.808;7.478;2023-04-29T03:53:02;21.38;;;12.25;;
12852;SDS011;6495;51.808;7.478;2023-04-29T03:55:33;23.60;;;12.35;;
12852;SDS011;6495;51.808;7.478;2023-04-29T03:58:01;26.73;;;13.85;;
12852;SDS011;6495;51.808;7.478;2023-04-29T04:00:30;23.23;;;12.45;;
12852;SDS011;6495;51.808;7.478;2023-04-29T04:03:01;24.73;;;13.30;;
12852;SDS011;6495;51.808;7.478;2023-04-29T04:05:33;23.95;;;12.35;;
12852;SDS011;6495;51.808;7.478;2023-04-29T04:08:07;22.10;;;11.93;;
12852;SDS011;6495;51.808;7.478;2023-04-29T04:10:40;26.15;;;13.02;;
12852;SDS011;6495;51.808;7.478;2023-04-29T04:13:20;23.40;;;11.90;;
12852;SDS011;6495;51.808;7.478;2023-04-29T04:15:48;21.40;;;12.20;;
12852;SDS011;6495;51.808;7.478;2023-04-29T04:18:17;26.58;;;12.75;;
12852;SDS011;6495;51.808;7.478;2023-04-29T04:20:45;21.80;;;12.43;;
12852;SDS011;6495;51.808;7.478;2023-04-29T04:23:14;19.92;;;11.68;;
12852;SDS011;6495;51.808;7.478;2023-04-29T04:25:45;21.83;;;12.82;;
12852;SDS011;6495;51.808;7.478;2023-04-29T04:28:32;24.08;;;11.60;;
12852;SDS011;6495;51.808;7.478;2023-04-29T04:31:05;21.88;;;12.30;;
12852;SDS011;6495;51.808;7.478;2023-04-29T04:33:34;19.05;;;11.52;;
12852;SDS011;6495;51.808;7.478;2023-04-29T04:36:03;21.58;;;12.52;;
12852;SDS011;6495;51.808;7.478;2023-04-29T04:38:31;19.45;;;12.20;;
12852;SDS011;6495;51.808;7.478;2023-04-29T04:41:06;19.42;;;11.32;;
12852;SDS011;6495;51.808;7.478;2023-04-29T04:43:36;21.20;;;12.75;;
12852;SDS011;6495;51.808;7.478;2023-04-29T04:46:12;20.70;;;11.88;;
12852;SDS011;6495;51.808;7.478;2023-04-29T04:48:59;21.20;;;11.57;;
12852;SDS011;6495;51.808;7.478;2023-04-29T04:51:28;21.58;;;10.32;;
12852;SDS011;6495;51.808;7.478;2023-04-29T04:53:56;24.67;;;12.27;;
12852;SDS011;6495;51.808;7.478;2023-04-29T04:56:28;21.02;;;11.55;;
12852;SDS011;6495;51.808;7.478;2023-04-29T04:58:57;19.13;;;10.75;;
12852;SDS011;6495;51.808;7.478;2023-04-29T05:01:25;19.60;;;10.77;;
12852;SDS011;6495;51.808;7.478;2023-04-29T05:03:53;19.95;;;11.35;;
12852;SDS011;6495;51.808;7.478;2023-04-29T05:06:22;21.02;;;11.30;;
12852;SDS011;6495;51.808;7.478;2023-04-29T05:08:51;19.88;;;10.90;;
12852;SDS011;6495;51.808;7.478;2023-04-29T05:11:19;18.85;;;11.15;;
12852;SDS011;6495;51.808;7.478;2023-04-29T05:14:04;18.42;;;10.55;;
12852;SDS011;6495;51.808;7.478;2023-04-29T05:16:32;19.65;;;11.60;;
12852;SDS011;6495;51.808;7.478;2023-04-29T05:19:01;18.52;;;10.80;;
12852;SDS011;6495;51.808;7.478;2023-04-29T05:21:33;17.35;;;9.45;;
12852;SDS011;6495;51.808;7.478;2023-04-29T05:24:02;23.20;;;12.20;;
12852;SDS011;6495;51.808;7.478;2023-04-29T05:26:30;18.50;;;10.15;;
12852;SDS011;6495;51.808;7.478;2023-04-29T05:29:00;18.23;;;10.25;;
12852;SDS011;6495;51.808;7.478;2023-04-29T05:31:35;19.85;;;10.55;;
12852;SDS011;6495;51.808;7.478;2023-04-29T05:34:04;19.55;;;10.55;;
12852;SDS011;6495;51.808;7.478;2023-04-29T05:36:32;18.17;;;11.13;;
12852;SDS011;6495;51.808;7.478;2023-04-29T05:39:00;19.13;;;10.40;;
12852;SDS011;6495;51.808;7.478;2023-04-29T05:41:29;19.33;;;11.25;;
12852;SDS011;6495;51.808;7.478;2023-04-29T05:44:11;21.52;;;11.32;;
12852;SDS011;6495;51.808;7.478;2023-04-29T05:46:40;19.50;;;11.20;;
12852;SDS011;6495;51.808;7.478;2023-04-29T05:49:09;24.27;;;12.15;;
12852;SDS011;6495;51.808;7.478;2023-04-29T05:51:37;19.77;;;11.52;;
12852;SDS011;6495;51.808;7.478;2023-04-29T05:54:05;19.98;;;11.60;;
12852;SDS011;6495;51.808;7.478;2023-04-29T05:56:33;19.92;;;10.80;;
12852;SDS011;6495;51.808;7.478;2023-04-29T05:59:01;22.75;;;11.77;;
12852;SDS011;6495;51.808;7.478;2023-04-29T06:01:30;19.65;;;10.68;;
12852;SDS011;6495;51.808;7.478;2023-04-29T06:03:59;21.75;;;12.05;;
12852;SDS011;6495;51.808;7.478;2023-04-29T06:06:35;21.27;;;11.98;;
12852;SDS011;6495;51.808;7.478;2023-04-29T06:09:16;18.15;;;10.23;;
12852;SDS011;6495;51.808;7.478;2023-04-29T06:11:55;19.70;;;10.57;;
12852;SDS011;6495;51.808;7.478;2023-04-29T06:14:23;23.95;;;11.07;;
12852;SDS011;6495;51.808;7.478;2023-04-29T06:16:52;22.98;;;10.00;;
12852;SDS011;6495;51.808;7.478;2023-04-29T06:19:22;19.02;;;11.07;;
12852;SDS011;6495;51.808;7.478;2023-04-29T06:21:51;18.67;;;10.77;;
12852;SDS011;6495;51.808;7.478;2023-04-29T06:24:20;20.17;;;10.75;;
12852;SDS011;6495;51.808;7.478;2023-04-29T06:26:48;21.05;;;11.52;;
12852;SDS011;6495;51.808;7.478;2023-04-29T06:29:17;18.30;;;10.30;;
12852;SDS011;6495;51.808;7.478;2023-04-29T06:31:45;19.52;;;10.65;;
12852;SDS011;6495;51.808;7.478;2023-04-29T06:34:19;19.75;;;10.65;;
12852;SDS011;6495;51.808;7.478;2023-04-29T06:37:21;23.17;;;11.95;;
12852;SDS011;6495;51.808;7.478;2023-04-29T06:40:06;20.35;;;11.82;;
12852;SDS011;6495;51.808;7.478;2023-04-29T06:42:56;23.10;;;12.13;;
12852;SDS011;6495;51.808;7.478;2023-04-29T06:45:48;26.80;;;12.52;;
12852;SDS011;6495;51.808;7.478;2023-04-29T06:48:21;22.63;;;12.27;;
12852;SDS011;6495;51.808;7.478;2023-04-29T06:50:51;23.15;;;13.95;;
12852;SDS011;6495;51.808;7.478;2023-04-29T06:53:22;19.95;;;11.90;;
12852;SDS011;6495;51.808;7.478;2023-04-29T06:55:52;24.08;;;13.13;;
12852;SDS011;6495;51.808;7.478;2023-04-29T06:58:55;25.60;;;13.48;;
12852;SDS011;6495;51.808;7.478;2023-04-29T07:01:44;27.42;;;13.90;;
12852;SDS011;6495;51.808;7.478;2023-04-29T07:04:18;27.02;;;14.43;;
12852;SDS011;6495;51.808;7.478;2023-04-29T07:06:49;26.92;;;13.10;;
12852;SDS011;6495;51.808;7.478;2023-04-29T07:09:19;29.40;;;15.05;;
12852;SDS011;6495;51.808;7.478;2023-04-29T07:11:48;26.15;;;13.15;;
12852;SDS011;6495;51.808;7.478;2023-04-29T07:14:18;27.45;;;14.65;;
12852;SDS011;6495;51.808;7.478;2023-04-29T07:16:51;25.67;;;14.38;;
12852;SDS011;6495;51.808;7.478;2023-04-29T07:19:20;28.35;;;14.70;;
12852;SDS011;6495;51.808;7.478;2023-04-29T07:21:59;26.10;;;13.63;;
12852;SDS011;6495;51.808;7.478;2023-04-29T07:24:28;25.75;;;13.57;;
12852;SDS011;6495;51.808;7.478;2023-04-29T07:26:56;27.17;;;15.20;;
12852;SDS011;6495;51.808;7.478;2023-04-29T07:29:24;25.67;;;15.13;;
12852;SDS011;6495;51.808;7.478;2023-04-29T07:31:52;26.77;;;14.93;;
12852;SDS011;6495;51.808;7.478;2023-04-29T07:34:21;32.90;;;16.27;;
12852;SDS011;6495;51.808;7.478;2023-04-29T07:36:51;30.02;;;16.83;;
12852;SDS011;6495;51.808;7.478;2023-04-29T07:39:21;32.13;;;15.73;;
12852;SDS011;6495;51.808;7.478;2023-04-29T07:41:54;29.15;;;16.17;;
12852;SDS011;6495;51.808;7.478;2023-04-29T07:44:22;30.23;;;15.55;;
12852;SDS011;6495;51.808;7.478;2023-04-29T07:46:50;29.20;;;15.35;;
12852;SDS011;6495;51.808;7.478;2023-04-29T07:49:19;28.30;;;14.40;;
12852;SDS011;6495;51.808;7.478;2023-04-29T07:51:47;30.27;;;14.05;;
12852;SDS011;6495;51.808;7.478;2023-04-29T07:54:16;26.30;;;14.07;;
12852;SDS011;6495;51.808;7.478;2023-04-29T07:56:45;30.92;;;14.80;;
12852;SDS011;6495;51.808;7.478;2023-04-29T07:59:13;31.20;;;15.05;;
12852;SDS011;6495;51.808;7.478;2023-04-29T08:01:41;32.22;;;17.42;;
12852;SDS011;6495;51.808;7.478;2023-04-29T08:04:10;29.55;;;14.63;;
12852;SDS011;6495;51.808;7.478;2023-04-29T08:06:46;26.67;;;15.40;;
12852;SDS011;6495;51.808;7.478;2023-04-29T08:09:16;31.63;;;16.00;;
12852;SDS011;6495;51.808;7.478;2023-04-29T08:11:45;28.70;;;16.25;;
12852;SDS011;6495;51.808;7.478;2023-04-29T08:14:13;36.40;;;16.92;;
12852;SDS011;6495;51.808;7.478;2023-04-29T08:16:41;23.95;;;15.25;;
12852;SDS011;6495;51.808;7.478;2023-04-29T08:19:09;26.85;;;15.63;;
12852;SDS011;6495;51.808;7.478;2023-04-29T08:21:38;30.83;;;16.33;;
12852;SDS011;6495;51.808;7.478;2023-04-29T08:24:06;30.83;;;16.60;;
12852;SDS011;6495;51.808;7.478;2023-04-29T08:26:36;30.23;;;16.70;;
12852;SDS011;6495;51.808;7.478;2023-04-29T08:29:06;28.58;;;15.77;;
12852;SDS011;6495;51.808;7.478;2023-04-29T08:31:34;27.30;;;15.60;;
12852;SDS011;6495;51.808;7.478;2023-04-29T08:34:02;25.50;;;15.25;;
12852;SDS011;6495;51.808;7.478;2023-04-29T08:36:31;27.10;;;15.38;;
12852;SDS011;6495;51.808;7.478;2023-04-29T08:38:59;24.45;;;14.23;;
12852;SDS011;6495;51.808;7.478;2023-04-29T08:41:27;26.77;;;14.98;;
12852;SDS011;6495;51.808;7.478;2023-04-29T08:43:59;30.42;;;16.45;;
12852;SDS011;6495;51.808;7.478;2023-04-29T08:46:27;24.98;;;15.23;;
12852;SDS011;6495;51.808;7.478;2023-04-29T08:48:57;24.85;;;15.27;;
12852;SDS011;6495;51.808;7.478;2023-04-29T08:51:28;30.58;;;14.07;;
12852;SDS011;6495;51.808;7.478;2023-04-29T08:53:57;24.60;;;13.98;;
12852;SDS011;6495;51.808;7.478;2023-04-29T08:56:25;25.98;;;15.57;;
12852;SDS011;6495;51.808;7.478;2023-04-29T08:58:56;21.95;;;13.55;;
12852;SDS011;6495;51.808;7.478;2023-04-29T09:01:28;30.08;;;14.82;;
12852;SDS011;6495;51.808;7.478;2023-04-29T09:04:02;25.48;;;14.93;;
12852;SDS011;6495;51.808;7.478;2023-04-29T09:06:36;26.58;;;14.48;;
12852;SDS011;6495;51.808;7.478;2023-04-29T09:09:05;21.42;;;13.82;;
12852;SDS011;6495;51.808;7.478;2023-04-29T09:11:34;21.10;;;12.38;;
12852;SDS011;6495;51.808;7.478;2023-04-29T09:14:05;25.25;;;14.02;;
12852;SDS011;6495;51.808;7.478;2023-04-29T09:16:34;21.92;;;14.73;;
12852;SDS011;6495;51.808;7.478;2023-04-29T09:19:04;23.15;;;14.05;;
12852;SDS011;6495;51.808;7.478;2023-04-29T09:21:32;18.77;;;12.32;;
12852;SDS011;6495;51.808;7.478;2023-04-29T09:24:01;25.05;;;13.90;;
12852;SDS011;6495;51.808;7.478;2023-04-29T09:26:33;22.10;;;12.27;;
12852;SDS011;6495;51.808;7.478;2023-04-29T09:29:11;22.92;;;13.82;;
12852;SDS011;6495;51.808;7.478;2023-04-29T09:31:41;19.58;;;13.35;;
12852;SDS011;6495;51.808;7.478;2023-04-29T09:34:10;21.48;;;13.18;;
12852;SDS011;6495;51.808;7.478;2023-04-29T09:36:51;25.15;;;12.65;;
12852;SDS011;6495;51.808;7.478;2023-04-29T09:39:25;22.35;;;12.70;;
12852;SDS011;6495;51.808;7.478;2023-04-29T09:42:04;15.48;;;10.40;;
12852;SDS011;6495;51.808;7.478;2023-04-29T09:44:40;23.08;;;13.40;;
12852;SDS011;6495;51.808;7.478;2023-04-29T09:47:08;20.90;;;12.52;;
12852;SDS011;6495;51.808;7.478;2023-04-29T09:49:39;20.40;;;12.77;;
12852;SDS011;6495;51.808;7.478;2023-04-29T09:52:11;23.58;;;13.23;;
12852;SDS011;6495;51.808;7.478;2023-04-29T09:54:44;21.73;;;11.30;;
12852;SDS011;6495;51.808;7.478;2023-04-29T09:57:13;19.48;;;12.13;;
12852;SDS011;6495;51.808;7.478;2023-04-29T09:59:45;19.50;;;11.88;;
12852;SDS011;6495;51.808;7.478;2023-04-29T10:02:14;17.48;;;10.82;;
12852;SDS011;6495;51.808;7.478;2023-04-29T10:04:44;21.90;;;12.32;;
12852;SDS011;6495;51.808;7.478;2023-04-29T10:07:20;18.70;;;12.73;;
12852;SDS011;6495;51.808;7.478;2023-04-29T10:09:49;16.60;;;11.40;;
12852;SDS011;6495;51.808;7.478;2023-04-29T10:12:18;18.15;;;11.65;;
12852;SDS011;6495;51.808;7.478;2023-04-29T10:14:49;23.50;;;13.02;;
12852;SDS011;6495;51.808;7.478;2023-04-29T10:17:32;19.38;;;12.45;;
12852;SDS011;6495;51.808;7.478;2023-04-29T10:20:11;20.00;;;11.48;;
12852;SDS011;6495;51.808;7.478;2023-04-29T10:22:44;19.15;;;12.63;;
12852;SDS011;6495;51.808;7.478;2023-04-29T10:25:14;17.33;;;11.70;;
12852;SDS011;6495;51.808;7.478;2023-04-29T10:27:45;16.63;;;11.55;;
12852;SDS011;6495;51.808;7.478;2023-04-29T10:30:18;16.05;;;11.63;;
12852;SDS011;6495;51.808;7.478;2023-04-29T10:32:49;22.38;;;12.20;;
12852;SDS011;6495;51.808;7.478;2023-04-29T10:35:20;18.83;;;11.10;;
12852;SDS011;6495;51.808;7.478;2023-04-29T10:37:50;17.42;;;10.65;;
12852;SDS011;6495;51.808;7.478;2023-04-29T10:40:23;16.65;;;10.70;;
12852;SDS011;6495;51.808;7.478;2023-04-29T10:43:03;19.83;;;12.35;;
12852;SDS011;6495;51.808;7.478;2023-04-29T10:45:32;18.73;;;11.88;;
12852;SDS011;6495;51.808;7.478;2023-04-29T10:48:11;20.00;;;12.13;;
12852;SDS011;6495;51.808;7.478;2023-04-29T10:53:28;15.32;;;10.43;;
12852;SDS011;6495;51.808;7.478;2023-04-29T10:55:58;20.48;;;11.32;;
12852;SDS011;6495;51.808;7.478;2023-04-29T10:58:33;18.90;;;11.65;;
12852;SDS011;6495;51.808;7.478;2023-04-29T11:01:10;15.30;;;10.13;;
12852;SDS011;6495;51.808;7.478;2023-04-29T11:03:50;15.32;;;10.43;;
12852;SDS011;6495;51.808;7.478;2023-04-29T11:06:37;14.23;;;10.05;;
12852;SDS011;6495;51.808;7.478;2023-04-29T11:09:09;18.30;;;11.07;;
12852;SDS011;6495;51.808;7.478;2023-04-29T11:11:46;16.85;;;11.15;;
12852;SDS011;6495;51.808;7.478;2023-04-29T11:14:33;13.85;;;9.40;;
12852;SDS011;6495;51.808;7.478;2023-04-29T11:17:06;15.52;;;9.48;;
12852;SDS011;6495;51.808;7.478;2023-04-29T11:19:44;13.55;;;9.25;;
12852;SDS011;6495;51.808;7.478;2023-04-29T11:22:24;17.10;;;9.48;;
12852;SDS011;6495;51.808;7.478;2023-04-29T11:24:56;14.10;;;9.30;;
12852;SDS011;6495;51.808;7.478;2023-04-29T11:28:14;16.48;;;10.85;;
12852;SDS011;6495;51.808;7.478;2023-04-29T11:30:43;13.88;;;8.80;;
12852;SDS011;6495;51.808;7.478;2023-04-29T11:33:14;13.98;;;9.10;;
12852;SDS011;6495;51.808;7.478;2023-04-29T11:35:43;13.05;;;9.10;;
12852;SDS011;6495;51.808;7.478;2023-04-29T11:38:12;12.02;;;7.88;;
12852;SDS011;6495;51.808;7.478;2023-04-29T11:40:41;11.88;;;8.52;;
12852;SDS011;6495;51.808;7.478;2023-04-29T11:43:25;11.85;;;8.35;;
12852;SDS011;6495;51.808;7.478;2023-04-29T11:45:54;12.27;;;8.18;;
12852;SDS011;6495;51.808;7.478;2023-04-29T11:48:25;14.20;;;8.15;;
12852;SDS011;6495;51.808;7.478;2023-04-29T11:50:58;13.48;;;8.57;;
12852;SDS011;6495;51.808;7.478;2023-04-29T11:53:26;13.77;;;8.38;;
12852;SDS011;6495;51.808;7.478;2023-04-29T11:55:55;13.05;;;9.05;;
12852;SDS011;6495;51.808;7.478;2023-04-29T11:58:24;12.13;;;8.82;;
12852;SDS011;6495;51.808;7.478;2023-04-29T12:00:52;10.98;;;8.07;;
12852;SDS011;6495;51.808;7.478;2023-04-29T12:03:21;11.77;;;8.25;;
12852;SDS011;6495;51.808;7.478;2023-04-29T12:05:51;10.73;;;8.55;;
12852;SDS011;6495;51.808;7.478;2023-04-29T12:08:21;11.68;;;8.07;;
12852;SDS011;6495;51.808;7.478;2023-04-29T12:10:51;13.55;;;8.38;;
12852;SDS011;6495;51.808;7.478;2023-04-29T12:13:21;12.38;;;8.25;;
12852;SDS011;6495;51.808;7.478;2023-04-29T12:15:51;10.93;;;6.95;;
12852;SDS011;6495;51.808;7.478;2023-04-29T12:18:20;10.45;;;7.68;;
12852;SDS011;6495;51.808;7.478;2023-04-29T12:20:54;11.93;;;8.18;;
12852;SDS011;6495;51.808;7.478;2023-04-29T12:23:24;12.32;;;8.85;;
12852;SDS011;6495;51.808;7.478;2023-04-29T12:25:59;12.77;;;8.05;;
12852;SDS011;6495;51.808;7.478;2023-04-29T12:31:36;9.90;;;7.00;;
12852;SDS011;6495;51.808;7.478;2023-04-29T12:34:08;10.85;;;7.78;;
12852;SDS011;6495;51.808;7.478;2023-04-29T12:36:43;12.77;;;8.05;;
12852;SDS011;6495;51.808;7.478;2023-04-29T12:39:14;11.90;;;7.90;;
12852;SDS011;6495;51.808;7.478;2023-04-29T12:44:58;12.27;;;8.02;;
12852;SDS011;6495;51.808;7.478;2023-04-29T12:51:35;13.82;;;7.90;;
12852;SDS011;6495;51.808;7.478;2023-04-29T13:08:37;13.35;;;8.85;;
12852;SDS011;6495;51.808;7.478;2023-04-29T13:17:20;11.05;;;7.13;;
12852;SDS011;6495;51.808;7.478;2023-04-29T13:19:48;10.02;;;6.75;;
12852;SDS011;6495;51.808;7.478;2023-04-29T13:22:17;12.77;;;7.47;;
12852;SDS011;6495;51.808;7.478;2023-04-29T13:24:47;10.13;;;7.03;;
12852;SDS011;6495;51.808;7.478;2023-04-29T13:27:15;12.38;;;6.85;;
12852;SDS011;6495;51.808;7.478;2023-04-29T13:29:43;10.30;;;6.95;;
12852;SDS011;6495;51.808;7.478;2023-04-29T13:32:12;10.43;;;6.60;;
12852;SDS011;6495;51.808;7.478;2023-04-29T13:34:45;10.30;;;6.43;;
12852;SDS011;6495;51.808;7.478;2023-04-29T13:37:13;12.00;;;6.10;;
12852;SDS011;6495;51.808;7.478;2023-04-29T13:39:42;12.30;;;6.75;;
12852;SDS011;6495;51.808;7.478;2023-04-29T13:42:16;8.50;;;5.75;;
12852;SDS011;6495;51.808;7.478;2023-04-29T13:44:45;7.85;;;6.03;;
12852;SDS011;6495;51.808;7.478;2023-04-29T13:47:18;10.75;;;6.47;;
12852;SDS011;6495;51.808;7.478;2023-04-29T13:49:55;9.60;;;5.97;;
12852;SDS011;6495;51.808;7.478;2023-04-29T13:52:47;9.50;;;6.35;;
12852;SDS011;6495;51.808;7.478;2023-04-29T13:55:39;10.10;;;6.32;;
12852;SDS011;6495;51.808;7.478;2023-04-29T13:58:27;9.68;;;6.30;;
12852;SDS011;6495;51.808;7.478;2023-04-29T14:01:16;10.65;;;6.22;;
12852;SDS011;6495;51.808;7.478;2023-04-29T14:04:08;11.50;;;6.60;;
12852;SDS011;6495;51.808;7.478;2023-04-29T14:06:38;8.90;;;6.50;;
12852;SDS011;6495;51.808;7.478;2023-04-29T14:09:09;8.32;;;5.97;;
12852;SDS011;6495;51.808;7.478;2023-04-29T14:11:37;10.05;;;6.47;;
12852;SDS011;6495;51.808;7.478;2023-04-29T14:14:06;9.73;;;6.30;;
12852;SDS011;6495;51.808;7.478;2023-04-29T14:16:35;9.23;;;6.50;;
12852;SDS011;6495;51.808;7.478;2023-04-29T14:19:03;10.77;;;6.80;;
12852;SDS011;6495;51.808;7.478;2023-04-29T14:21:32;11.27;;;5.72;;
12852;SDS011;6495;51.808;7.478;2023-04-29T14:24:02;8.63;;;5.20;;
12852;SDS011;6495;51.808;7.478;2023-04-29T14:26:30;8.45;;;4.80;;
12852;SDS011;6495;51.808;7.478;2023-04-29T14:28:59;5.63;;;4.45;;
12852;SDS011;6495;51.808;7.478;2023-04-29T14:31:32;9.27;;;4.53;;
12852;SDS011;6495;51.808;7.478;2023-04-29T14:34:05;7.30;;;4.93;;
12852;SDS011;6495;51.808;7.478;2023-04-29T14:36:34;6.88;;;4.25;;
12852;SDS011;6495;51.808;7.478;2023-04-29T14:39:05;7.63;;;4.10;;
12852;SDS011;6495;51.808;7.478;2023-04-29T14:41:37;8.07;;;4.80;;
12852;SDS011;6495;51.808;7.478;2023-04-29T14:44:11;6.10;;;4.00;;
12852;SDS011;6495;51.808;7.478;2023-04-29T14:46:41;7.35;;;4.30;;
12852;SDS011;6495;51.808;7.478;2023-04-29T14:49:09;6.88;;;4.70;;
12852;SDS011;6495;51.808;7.478;2023-04-29T14:51:39;5.20;;;4.22;;
12852;SDS011;6495;51.808;7.478;2023-04-29T14:59:15;8.45;;;4.55;;
12852;SDS011;6495;51.808;7.478;2023-04-29T15:01:43;6.97;;;4.95;;
12852;SDS011;6495;51.808;7.478;2023-04-29T15:04:12;8.70;;;4.78;;
12852;SDS011;6495;51.808;7.478;2023-04-29T15:06:40;7.50;;;5.07;;
12852;SDS011;6495;51.808;7.478;2023-04-29T15:09:09;6.43;;;4.78;;
12852;SDS011;6495;51.808;7.478;2023-04-29T15:11:40;8.80;;;4.97;;
12852;SDS011;6495;51.808;7.478;2023-04-29T15:14:08;6.30;;;4.97;;
12852;SDS011;6495;51.808;7.478;2023-04-29T15:16:36;8.75;;;4.35;;
12852;SDS011;6495;51.808;7.478;2023-04-29T15:19:05;5.80;;;4.57;;
12852;SDS011;6495;51.808;7.478;2023-04-29T15:21:34;7.78;;;5.30;;
12852;SDS011;6495;51.808;7.478;2023-04-29T15:25:38;7.22;;;4.82;;
12852;SDS011;6495;51.808;7.478;2023-04-29T15:28:22;6.75;;;4.30;;
12852;SDS011;6495;51.808;7.478;2023-04-29T15:30:51;7.70;;;4.22;;
12852;SDS011;6495;51.808;7.478;2023-04-29T15:33:19;7.20;;;4.57;;
12852;SDS011;6495;51.808;7.478;2023-04-29T15:35:47;7.32;;;4.65;;
12852;SDS011;6495;51.808;7.478;2023-04-29T15:38:16;7.28;;;4.43;;
12852;SDS011;6495;51.808;7.478;2023-04-29T15:40:49;6.70;;;4.32;;
12852;SDS011;6495;51.808;7.478;2023-04-29T15:43:26;4.80;;;3.78;;
12852;SDS011;6495;51.808;7.478;2023-04-29T15:45:55;5.53;;;3.75;;
12852;SDS011;6495;51.808;7.478;2023-04-29T15:48:25;5.13;;;3.75;;